createdAt,value
2022-12-11T00:00:22.298Z,5.60
2022-12-11T00:02:49.527Z,5.50
2022-12-11T00:05:16.422Z,5.40
2022-12-11T00:07:43.412Z,5.30
2022-12-11T00:10:10.208Z,5.30
2022-12-11T00:12:36.979Z,5.30
2022-12-11T00:15:04.049Z,5.40
2022-12-11T00:17:30.905Z,5.50
2022-12-11T00:19:57.723Z,5.50
2022-12-11T00:22:24.526Z,5.50
2022-12-11T00:24:51.807Z,5.40
2022-12-11T00:27:18.631Z,5.30
2022-12-11T00:29:45.468Z,5.30
2022-12-11T00:32:12.305Z,5.30
2022-12-11T00:34:39.216Z,5.40
2022-12-11T00:37:05.966Z,5.40
2022-12-11T00:39:32.777Z,5.40
2022-12-11T00:41:59.629Z,5.30
2022-12-11T00:44:26.419Z,5.30
2022-12-11T00:46:53.196Z,5.30
2022-12-11T00:49:19.923Z,5.20
2022-12-11T00:51:46.758Z,5.20
2022-12-11T00:54:13.534Z,5.20
2022-12-11T00:56:40.232Z,5.00
2022-12-11T00:59:07.066Z,5.00
2022-12-11T01:01:33.828Z,5.00
2022-12-11T01:04:00.722Z,4.90
2022-12-11T01:06:27.920Z,4.90
2022-12-11T01:09:13.753Z,4.90
2022-12-11T01:11:40.696Z,4.90
2022-12-11T01:14:07.566Z,4.80
2022-12-11T01:16:34.357Z,4.80
2022-12-11T01:19:01.063Z,4.90
2022-12-11T01:21:27.871Z,4.80
2022-12-11T01:23:54.658Z,4.90
2022-12-11T01:26:21.652Z,4.90
2022-12-11T01:28:51.539Z,4.90
2022-12-11T01:31:19.082Z,4.90
2022-12-11T01:33:45.869Z,4.90
2022-12-11T01:36:18.071Z,4.90
2022-12-11T01:38:45.996Z,5.00
2022-12-11T01:41:13.333Z,4.90
2022-12-11T01:44:03.280Z,5.00
2022-12-11T01:46:30.578Z,4.90
2022-12-11T01:48:57.629Z,4.90
2022-12-11T01:51:24.863Z,4.80
2022-12-11T01:54:00.823Z,4.70
2022-12-11T01:56:28.195Z,4.60
2022-12-11T01:58:56.517Z,4.60
2022-12-11T02:01:55.367Z,4.50
2022-12-11T02:04:22.133Z,4.50
2022-12-11T02:06:50.371Z,4.50
2022-12-11T02:09:36.492Z,4.60
2022-12-11T02:12:18.408Z,4.80
2022-12-11T02:15:03.625Z,4.80
2022-12-11T02:17:44.343Z,4.80
2022-12-11T02:20:39.031Z,4.90
2022-12-11T02:23:11.680Z,4.90
2022-12-11T02:25:53.363Z,4.90
2022-12-11T02:28:30.343Z,4.90
2022-12-11T02:31:12.428Z,4.90
2022-12-11T02:33:50.259Z,5.00
2022-12-11T02:36:18.170Z,5.00
2022-12-11T02:38:50.509Z,4.90
2022-12-11T02:41:18.488Z,4.90
2022-12-11T02:43:45.422Z,4.90
2022-12-11T02:46:12.242Z,4.90
2022-12-11T02:48:39.187Z,4.80
2022-12-11T02:51:06.212Z,4.80
2022-12-11T02:53:33.072Z,4.80
2022-12-11T02:56:06.307Z,4.80
2022-12-11T02:58:33.195Z,4.90
2022-12-11T03:01:00.134Z,4.90
2022-12-11T03:03:28.682Z,4.90
2022-12-11T03:05:55.784Z,4.90
2022-12-11T03:08:22.665Z,4.80
2022-12-11T03:10:49.588Z,4.80
2022-12-11T03:13:18.370Z,4.80
2022-12-11T03:16:22.991Z,4.70
2022-12-11T03:19:15.900Z,4.80
2022-12-11T03:21:59.150Z,4.70
2022-12-11T03:24:32.055Z,4.70
2022-12-11T03:27:01.160Z,4.70
2022-12-11T03:29:39.581Z,4.70
2022-12-11T03:32:09.925Z,4.80
2022-12-11T03:34:58.472Z,4.80
2022-12-11T03:37:26.256Z,4.90
2022-12-11T03:39:55.661Z,4.90
2022-12-11T03:42:22.480Z,4.90
2022-12-11T03:44:50.123Z,4.90
2022-12-11T03:47:18.802Z,4.90
2022-12-11T03:49:45.648Z,4.90
2022-12-11T03:52:12.926Z,4.90
2022-12-11T03:54:40.303Z,4.90
2022-12-11T03:57:07.256Z,4.90
2022-12-11T03:59:34.065Z,5.00
2022-12-11T04:02:01.099Z,4.90
2022-12-11T04:04:28.112Z,4.90
2022-12-11T04:06:54.949Z,4.90
2022-12-11T04:09:21.710Z,4.90
2022-12-11T04:11:48.479Z,4.90
2022-12-11T04:14:33.755Z,4.90
2022-12-11T04:17:00.885Z,4.90
2022-12-11T04:19:46.243Z,4.90
2022-12-11T04:22:32.603Z,4.90
2022-12-11T04:24:59.826Z,4.80
2022-12-11T04:27:45.048Z,4.90
2022-12-11T04:30:15.477Z,4.90
2022-12-11T04:32:42.345Z,5.00
2022-12-11T04:35:09.764Z,5.00
2022-12-11T04:37:36.818Z,5.00
2022-12-11T04:40:05.290Z,5.00
2022-12-11T04:42:32.064Z,5.00
2022-12-11T04:44:58.886Z,5.00
2022-12-11T04:47:25.649Z,4.90
2022-12-11T04:49:52.389Z,4.90
2022-12-11T04:52:19.205Z,4.90
2022-12-11T04:54:46.529Z,4.90
2022-12-11T04:57:13.397Z,4.90
2022-12-11T04:59:40.294Z,5.00
2022-12-11T05:02:07.109Z,5.00
2022-12-11T05:04:34.394Z,5.10
2022-12-11T05:07:01.569Z,5.10
2022-12-11T05:09:28.402Z,5.00
2022-12-11T05:11:55.273Z,5.00
2022-12-11T05:14:22.176Z,5.00
2022-12-11T05:16:49.008Z,5.00
2022-12-11T05:19:15.775Z,5.00
2022-12-11T05:21:42.495Z,5.00
2022-12-11T05:24:09.319Z,4.90
2022-12-11T05:26:36.170Z,4.90
2022-12-11T05:29:03.116Z,5.00
2022-12-11T05:31:29.973Z,4.90
2022-12-11T05:33:56.729Z,5.00
2022-12-11T05:36:28.081Z,5.00
2022-12-11T05:38:54.984Z,4.90
2022-12-11T05:41:23.359Z,4.90
2022-12-11T05:43:50.151Z,4.90
2022-12-11T05:46:18.826Z,5.00
2022-12-11T05:48:46.656Z,5.00
2022-12-11T05:51:13.955Z,5.10
2022-12-11T05:53:41.125Z,5.10
2022-12-11T05:56:10.900Z,5.00
2022-12-11T05:58:38.178Z,5.00
2022-12-11T06:01:12.946Z,4.90
2022-12-11T06:03:39.731Z,4.90
2022-12-11T06:06:06.988Z,4.90
2022-12-11T06:08:33.911Z,4.90
2022-12-11T06:11:00.833Z,4.90
2022-12-11T06:13:27.598Z,5.00
2022-12-11T06:15:54.411Z,5.10
2022-12-11T06:18:21.191Z,5.10
2022-12-11T06:20:47.937Z,5.10
2022-12-11T06:23:14.710Z,5.00
2022-12-11T06:25:41.482Z,5.10
2022-12-11T06:28:08.441Z,5.00
2022-12-11T06:30:37.364Z,5.00
2022-12-11T06:33:06.771Z,5.10
2022-12-11T06:35:40.061Z,5.00
2022-12-11T06:38:08.804Z,5.00
2022-12-11T06:40:35.600Z,5.10
2022-12-11T06:43:02.371Z,5.10
2022-12-11T06:45:29.227Z,5.10
2022-12-11T06:47:56.154Z,5.20
2022-12-11T06:50:22.984Z,5.20
2022-12-11T06:52:49.770Z,5.20
2022-12-11T06:55:16.684Z,5.20
2022-12-11T06:57:43.487Z,5.30
2022-12-11T07:00:10.975Z,5.40
2022-12-11T07:02:37.744Z,5.40
2022-12-11T07:05:05.074Z,5.50
2022-12-11T07:07:31.860Z,5.40
2022-12-11T07:10:04.086Z,5.40
2022-12-11T07:12:34.316Z,5.40
2022-12-11T07:15:01.104Z,5.40
2022-12-11T07:17:28.904Z,5.40
2022-12-11T07:19:56.024Z,5.40
2022-12-11T07:22:22.780Z,5.50
2022-12-11T07:24:49.552Z,5.50
2022-12-11T07:27:16.290Z,5.50
2022-12-11T07:29:43.100Z,5.50
2022-12-11T07:32:10.013Z,5.60
2022-12-11T07:34:37.048Z,5.60
2022-12-11T07:37:03.901Z,5.60
2022-12-11T07:39:30.655Z,5.80
2022-12-11T07:41:57.479Z,5.90
2022-12-11T07:44:24.321Z,5.90
2022-12-11T07:46:51.137Z,5.90
2022-12-11T07:49:17.919Z,6.00
2022-12-11T07:51:44.816Z,6.00
2022-12-11T07:54:16.617Z,6.00
2022-12-11T07:56:51.312Z,5.90
2022-12-11T07:59:21.081Z,5.90
2022-12-11T08:01:47.959Z,5.90
2022-12-11T08:04:15.854Z,6.00
2022-12-11T08:06:43.127Z,6.00
2022-12-11T08:09:15.999Z,6.10
2022-12-11T08:11:49.399Z,6.10
2022-12-11T08:14:16.228Z,6.20
2022-12-11T08:16:44.215Z,6.20
2022-12-11T08:19:12.363Z,6.30
2022-12-11T08:21:39.943Z,6.50
2022-12-11T08:24:06.932Z,6.60
2022-12-11T08:26:33.693Z,6.80
2022-12-11T08:29:01.036Z,7.00
2022-12-11T08:31:27.840Z,7.20
2022-12-11T08:33:55.476Z,7.20
2022-12-11T08:36:22.938Z,7.20
2022-12-11T08:38:50.345Z,7.20
2022-12-11T08:41:23.546Z,7.20
2022-12-11T08:43:54.803Z,7.10
2022-12-11T08:46:23.805Z,7.20
2022-12-11T08:48:50.720Z,7.20
2022-12-11T08:51:20.868Z,7.20
2022-12-11T08:53:47.604Z,7.20
2022-12-11T08:56:16.449Z,7.20
2022-12-11T08:58:43.722Z,7.20
2022-12-11T09:01:24.516Z,7.20
2022-12-11T09:03:51.898Z,7.50
2022-12-11T09:06:20.466Z,7.70
2022-12-11T09:08:52.256Z,7.90
2022-12-11T09:11:24.607Z,8.00
2022-12-11T09:13:51.392Z,8.10
2022-12-11T09:16:19.138Z,8.20
2022-12-11T09:18:47.195Z,8.30
2022-12-11T09:21:15.348Z,8.30
2022-12-11T09:23:44.400Z,8.40
2022-12-11T09:26:12.997Z,8.40
2022-12-11T09:28:44.375Z,8.40
2022-12-11T09:31:18.138Z,8.50
2022-12-11T09:33:45.282Z,8.40
2022-12-11T09:36:12.130Z,8.30
2022-12-11T09:38:39.017Z,8.10
2022-12-11T09:41:20.849Z,8.10
2022-12-11T09:43:52.094Z,8.10
2022-12-11T09:46:20.782Z,8.10
2022-12-11T09:48:50.346Z,8.00
2022-12-11T09:51:29.098Z,8.00
2022-12-11T09:53:56.940Z,8.00
2022-12-11T09:56:33.202Z,8.00
2022-12-11T09:59:05.590Z,8.00
2022-12-11T10:02:06.360Z,7.80
2022-12-11T10:04:54.702Z,7.80
2022-12-11T10:07:43.919Z,7.90
2022-12-11T10:10:17.426Z,8.00
2022-12-11T10:12:50.416Z,8.10
2022-12-11T10:15:30.245Z,8.20
2022-12-11T10:18:02.938Z,8.20
2022-12-11T10:20:36.417Z,8.30
2022-12-11T10:23:03.606Z,8.20
2022-12-11T10:25:41.440Z,8.20
2022-12-11T10:28:15.084Z,8.20
2022-12-11T10:30:49.869Z,8.20
2022-12-11T10:33:27.245Z,8.20
2022-12-11T10:35:55.007Z,8.20
2022-12-11T10:38:32.334Z,8.20
2022-12-11T10:41:03.953Z,8.20
2022-12-11T10:43:37.744Z,8.20
2022-12-11T10:46:06.551Z,8.20
2022-12-11T10:48:33.695Z,8.20
2022-12-11T10:51:02.842Z,8.20
2022-12-11T10:53:29.804Z,8.10
2022-12-11T10:55:58.578Z,8.10
2022-12-11T10:58:34.472Z,8.10
2022-12-11T11:01:11.137Z,8.00
2022-12-11T11:03:52.804Z,7.90
2022-12-11T11:06:20.632Z,7.90
2022-12-11T11:09:00.760Z,7.90
2022-12-11T11:11:33.908Z,7.90
2022-12-11T11:14:17.038Z,7.80
2022-12-11T11:16:48.158Z,7.90
2022-12-11T11:19:19.045Z,8.00
2022-12-11T11:21:53.511Z,8.00
2022-12-11T11:24:47.201Z,7.90
2022-12-11T11:27:43.790Z,8.00
2022-12-11T11:30:30.249Z,8.00
2022-12-11T11:33:00.660Z,8.10
2022-12-11T11:35:28.606Z,8.10
2022-12-11T11:38:00.554Z,8.20
2022-12-11T11:40:34.559Z,8.20
2022-12-11T11:43:10.012Z,8.30
2022-12-11T11:45:41.819Z,8.40
2022-12-11T11:48:17.791Z,8.40
2022-12-11T11:50:46.119Z,8.40
2022-12-11T11:53:24.281Z,8.50
2022-12-11T11:56:22.015Z,8.50
2022-12-11T11:58:51.948Z,8.50
2022-12-11T12:01:19.568Z,8.50
2022-12-11T12:03:47.001Z,8.50
2022-12-11T12:06:26.984Z,8.50
2022-12-11T12:09:21.164Z,8.50
2022-12-11T12:11:57.623Z,8.60
2022-12-11T12:14:51.823Z,8.60
2022-12-11T12:17:40.564Z,8.60
2022-12-11T12:20:10.583Z,8.80
2022-12-11T12:23:00.525Z,8.80
2022-12-11T12:25:35.007Z,8.80
2022-12-11T12:28:20.693Z,8.80
2022-12-11T12:31:08.502Z,8.90
2022-12-11T12:34:16.184Z,8.80
2022-12-11T12:36:48.734Z,8.80
2022-12-11T12:39:21.360Z,8.70
2022-12-11T12:42:07.026Z,8.60
2022-12-11T12:45:12.777Z,8.50
2022-12-11T12:47:40.081Z,8.40
2022-12-11T12:50:12.153Z,8.40
2022-12-11T12:52:39.535Z,8.30
2022-12-11T12:55:25.928Z,8.30
2022-12-11T12:57:57.624Z,8.20
2022-12-11T13:00:37.803Z,8.20
2022-12-11T13:03:21.797Z,8.10
2022-12-11T13:06:12.799Z,8.00
2022-12-11T13:08:46.416Z,8.00
2022-12-11T13:11:14.135Z,8.00
2022-12-11T13:13:42.780Z,8.10
2022-12-11T13:16:15.670Z,8.10
2022-12-11T13:18:43.679Z,8.10
2022-12-11T13:21:32.116Z,8.10
2022-12-11T13:24:14.005Z,8.00
2022-12-11T13:26:40.956Z,8.00
2022-12-11T13:29:31.431Z,8.00
2022-12-11T13:32:03.428Z,7.90
2022-12-11T13:34:33.784Z,7.90
2022-12-11T13:37:00.610Z,7.90
2022-12-11T13:39:29.889Z,7.80
2022-12-11T13:42:09.970Z,7.70
2022-12-11T13:44:40.718Z,7.60
2022-12-11T13:47:12.900Z,7.60
2022-12-11T13:49:42.417Z,7.50
2022-12-11T13:52:19.867Z,7.50
2022-12-11T13:54:51.619Z,7.50
2022-12-11T13:57:23.103Z,7.50
2022-12-11T13:59:54.148Z,7.50
2022-12-11T14:02:30.520Z,7.60
2022-12-11T14:05:16.351Z,7.60
2022-12-11T14:07:46.943Z,7.60
2022-12-11T14:10:22.544Z,7.60
2022-12-11T14:13:02.573Z,7.60
2022-12-11T14:15:30.143Z,7.50
2022-12-11T14:17:57.087Z,7.40
2022-12-11T14:20:31.833Z,7.30
2022-12-11T14:23:20.786Z,7.30
2022-12-11T14:25:57.554Z,7.20
2022-12-11T14:28:27.607Z,7.20
2022-12-11T14:30:59.273Z,7.20
2022-12-11T14:33:32.932Z,7.20
2022-12-11T14:35:59.818Z,7.20
2022-12-11T14:38:27.503Z,7.10
2022-12-11T14:40:56.786Z,7.00
2022-12-11T14:43:32.772Z,6.90
2022-12-11T14:46:01.957Z,6.80
2022-12-11T14:48:39.302Z,6.70
2022-12-11T14:51:07.535Z,6.60
2022-12-11T14:53:42.091Z,6.50
2022-12-11T14:56:09.611Z,6.40
2022-12-11T14:58:51.729Z,6.40
2022-12-11T15:01:32.924Z,6.50
2022-12-11T15:04:15.386Z,6.40
2022-12-11T15:06:46.653Z,6.30
2022-12-11T15:09:28.045Z,6.20
2022-12-11T15:11:56.975Z,6.10
2022-12-11T15:14:24.099Z,6.10
2022-12-11T15:16:51.135Z,6.10
2022-12-11T15:19:46.944Z,6.20
2022-12-11T15:22:13.738Z,6.30
2022-12-11T15:24:41.934Z,6.30
2022-12-11T15:27:36.804Z,6.40
2022-12-11T15:30:16.045Z,6.30
2022-12-11T15:32:42.834Z,6.30
2022-12-11T15:35:23.810Z,6.10
2022-12-11T15:37:54.862Z,6.00
2022-12-11T15:40:21.792Z,5.90
2022-12-11T15:42:48.650Z,6.00
2022-12-11T15:45:17.125Z,6.10
2022-12-11T15:47:44.170Z,6.10
2022-12-11T15:50:31.903Z,6.20
2022-12-11T15:52:58.696Z,6.20
2022-12-11T15:55:27.164Z,6.30
2022-12-11T15:57:58.580Z,6.40
2022-12-11T16:00:27.504Z,6.40
2022-12-11T16:02:55.113Z,6.40
2022-12-11T16:05:21.870Z,6.40
2022-12-11T16:07:49.162Z,6.40
2022-12-11T16:10:17.515Z,6.50
2022-12-11T16:12:44.305Z,6.50
2022-12-11T16:15:14.382Z,6.50
2022-12-11T16:17:43.154Z,6.40
2022-12-11T16:20:10.615Z,6.40
2022-12-11T16:22:37.359Z,6.30
2022-12-11T16:25:04.471Z,6.30
2022-12-11T16:27:31.350Z,6.30
2022-12-11T16:29:58.149Z,6.30
2022-12-11T16:32:24.991Z,6.40
2022-12-11T16:34:51.865Z,6.40
2022-12-11T16:37:18.684Z,6.30
2022-12-11T16:39:46.879Z,6.10
2022-12-11T16:42:13.730Z,6.00
2022-12-11T16:44:43.951Z,6.00
2022-12-11T16:47:11.030Z,5.90
2022-12-11T16:49:37.797Z,5.80
2022-12-11T16:52:04.850Z,5.70
2022-12-11T16:54:31.677Z,5.60
2022-12-11T16:56:58.439Z,5.60
2022-12-11T16:59:25.268Z,5.70
2022-12-11T17:01:52.320Z,5.80
2022-12-11T17:04:19.278Z,5.80
2022-12-11T17:06:46.449Z,5.90
2022-12-11T17:09:13.224Z,6.00
2022-12-11T17:11:40.039Z,6.00
2022-12-11T17:14:06.783Z,6.10
2022-12-11T17:16:34.119Z,6.10
2022-12-11T17:19:01.858Z,6.10
2022-12-11T17:21:28.612Z,6.10
2022-12-11T17:23:55.384Z,6.10
2022-12-11T17:26:22.170Z,6.10
2022-12-11T17:28:49.020Z,6.10
2022-12-11T17:31:17.195Z,6.10
2022-12-11T17:33:44.696Z,6.10
2022-12-11T17:36:13.733Z,6.10
2022-12-11T17:38:40.735Z,6.10
2022-12-11T17:41:08.343Z,6.10
2022-12-11T17:43:35.179Z,6.10
2022-12-11T17:46:01.961Z,6.10
2022-12-11T17:48:28.732Z,6.00
2022-12-11T17:50:55.508Z,6.00
2022-12-11T17:53:22.698Z,6.00
2022-12-11T17:55:49.795Z,6.00
2022-12-11T17:58:18.453Z,6.00
2022-12-11T18:00:46.241Z,6.10
2022-12-11T18:03:14.888Z,6.10
2022-12-11T18:05:48.299Z,6.10
2022-12-11T18:08:16.341Z,6.00
2022-12-11T18:10:43.350Z,6.00
2022-12-11T18:13:10.242Z,5.90
2022-12-11T18:15:37.268Z,5.70
2022-12-11T18:18:04.919Z,5.70
2022-12-11T18:20:32.422Z,5.70
2022-12-11T18:22:59.319Z,5.70
2022-12-11T18:25:26.075Z,5.80
2022-12-11T18:27:55.095Z,5.80
2022-12-11T18:30:22.888Z,5.80
2022-12-11T18:32:49.951Z,5.80
2022-12-11T18:35:17.066Z,5.80
2022-12-11T18:37:43.875Z,5.70
2022-12-11T18:40:12.109Z,5.60
2022-12-11T18:42:39.010Z,5.60
2022-12-11T18:45:06.977Z,5.50
2022-12-11T18:47:33.710Z,5.40
2022-12-11T18:50:05.803Z,5.30
2022-12-11T18:52:34.347Z,5.30
2022-12-11T18:55:01.162Z,5.20
2022-12-11T18:57:27.932Z,4.90
2022-12-11T18:59:54.788Z,4.90
2022-12-11T19:02:21.949Z,4.90
2022-12-11T19:04:51.331Z,4.90
2022-12-11T19:07:18.162Z,5.00
2022-12-11T19:09:48.068Z,5.00
2022-12-11T19:12:15.311Z,5.00
2022-12-11T19:14:42.072Z,5.10
2022-12-11T19:17:08.865Z,5.10
2022-12-11T19:19:36.017Z,5.10
2022-12-11T19:22:03.129Z,5.00
2022-12-11T19:24:30.035Z,4.90
2022-12-11T19:26:56.965Z,4.70
2022-12-11T19:29:25.636Z,4.70
2022-12-11T19:31:52.560Z,4.60
2022-12-11T19:34:19.368Z,4.60
2022-12-11T19:36:46.298Z,4.70
2022-12-11T19:39:14.413Z,4.80
2022-12-11T19:41:41.377Z,4.80
2022-12-11T19:44:08.166Z,4.80
2022-12-11T19:46:35.076Z,4.80
2022-12-11T19:49:02.168Z,4.80
2022-12-11T19:51:31.359Z,4.70
2022-12-11T19:53:59.220Z,4.70
2022-12-11T19:56:26.061Z,4.60
2022-12-11T19:58:52.859Z,4.50
2022-12-11T20:01:25.904Z,4.40
2022-12-11T20:03:53.450Z,4.40
2022-12-11T20:06:20.507Z,4.50
2022-12-11T20:08:47.548Z,4.50
2022-12-11T20:11:18.477Z,4.60
2022-12-11T20:13:46.825Z,4.60
2022-12-11T20:16:13.932Z,4.60
2022-12-11T20:18:40.946Z,4.60
2022-12-11T20:21:09.345Z,4.60
2022-12-11T20:23:36.338Z,4.50
2022-12-11T20:26:10.277Z,4.50
2022-12-11T20:28:37.033Z,4.50
2022-12-11T20:31:16.389Z,4.60
2022-12-11T20:33:46.579Z,4.60
2022-12-11T20:36:14.651Z,4.60
2022-12-11T20:38:41.742Z,4.50
2022-12-11T20:41:12.642Z,4.50
2022-12-11T20:43:39.535Z,4.50
2022-12-11T20:46:07.575Z,4.50
2022-12-11T20:48:34.652Z,4.50
2022-12-11T20:51:02.539Z,4.60
2022-12-11T20:53:31.755Z,4.60
2022-12-11T20:55:58.587Z,4.50
2022-12-11T20:58:28.408Z,4.50
2022-12-11T21:00:55.336Z,4.40
2022-12-11T21:03:22.131Z,4.40
2022-12-11T21:05:48.977Z,4.30
2022-12-11T21:08:15.913Z,4.30
2022-12-11T21:10:43.679Z,4.30
2022-12-11T21:13:10.504Z,4.30
2022-12-11T21:15:38.387Z,4.30
2022-12-11T21:18:08.119Z,4.30
2022-12-11T21:20:34.905Z,4.30
2022-12-11T21:23:02.221Z,4.40
2022-12-11T21:25:29.063Z,4.30
2022-12-11T21:27:55.831Z,4.30
2022-12-11T21:30:23.058Z,4.30
2022-12-11T21:32:49.882Z,4.30
2022-12-11T21:35:17.003Z,4.40
2022-12-11T21:37:47.232Z,4.50
2022-12-11T21:40:14.094Z,4.50
2022-12-11T21:42:40.943Z,4.50
2022-12-11T21:45:52.141Z,4.50
2022-12-11T21:47:54.697Z,4.50
2022-12-11T21:50:21.578Z,4.60
2022-12-11T21:52:48.419Z,4.60
2022-12-11T21:55:20.446Z,4.60
2022-12-11T21:57:47.193Z,4.60
2022-12-11T22:00:14.512Z,4.50
2022-12-11T22:02:41.545Z,4.50
2022-12-11T22:05:09.282Z,4.50
2022-12-11T22:07:36.330Z,4.50
2022-12-11T22:10:03.660Z,4.40
2022-12-11T22:12:30.508Z,4.40
2022-12-11T22:14:57.427Z,4.30
2022-12-11T22:17:24.584Z,4.30
2022-12-11T22:19:54.399Z,4.30
2022-12-11T22:22:21.207Z,4.30
2022-12-11T22:24:48.098Z,4.20
2022-12-11T22:27:19.071Z,4.20
2022-12-11T22:29:48.965Z,4.20
2022-12-11T22:32:15.806Z,4.10
2022-12-11T22:34:42.618Z,4.00
2022-12-11T22:37:09.431Z,4.00
2022-12-11T22:39:36.203Z,4.00
2022-12-11T22:42:03.343Z,3.90
2022-12-11T22:44:30.205Z,3.90
2022-12-11T22:46:57.412Z,3.90
2022-12-11T22:49:24.279Z,3.90
2022-12-11T22:51:51.030Z,3.90
2022-12-11T22:54:17.866Z,3.90
2022-12-11T22:56:44.749Z,3.90
2022-12-11T22:59:11.635Z,3.90
2022-12-11T23:01:38.374Z,3.80
2022-12-11T23:04:05.237Z,3.80
2022-12-11T23:06:32.018Z,3.80
2022-12-11T23:08:59.267Z,3.90
2022-12-11T23:11:28.725Z,3.90
2022-12-11T23:13:55.705Z,3.80
2022-12-11T23:16:23.179Z,3.80
2022-12-11T23:18:50.043Z,3.80
2022-12-11T23:21:16.780Z,3.80
2022-12-11T23:23:43.654Z,3.70
2022-12-11T23:26:12.220Z,3.80
2022-12-11T23:28:39.709Z,3.80
2022-12-11T23:31:06.583Z,3.80
2022-12-11T23:33:33.470Z,3.80
2022-12-11T23:36:00.320Z,3.70
2022-12-11T23:38:27.317Z,3.70
2022-12-11T23:40:54.105Z,3.60
2022-12-11T23:43:20.937Z,3.70
2022-12-11T23:45:47.919Z,3.60
2022-12-11T23:48:14.832Z,3.60
2022-12-11T23:50:42.032Z,3.50
2022-12-11T23:53:08.955Z,3.40
2022-12-11T23:55:35.767Z,3.40
2022-12-11T23:58:02.588Z,3.40
